createdAt,value
2019-05-07T00:01:55.252Z,85.60
2019-05-07T00:04:24.104Z,85.10
2019-05-07T00:06:53.347Z,84.20
2019-05-07T00:09:23.380Z,84.40
2019-05-07T00:11:53.441Z,85.00
2019-05-07T00:14:23.154Z,85.90
2019-05-07T00:16:53.449Z,86.30
2019-05-07T00:19:23.150Z,86.30
2019-05-07T00:21:52.911Z,86.30
2019-05-07T00:24:22.546Z,86.30
2019-05-07T00:26:53.214Z,86.10
2019-05-07T00:29:23.323Z,86.40
2019-05-07T00:31:52.559Z,87.70
2019-05-07T00:34:24.647Z,87.60
2019-05-07T00:37:13.111Z,87.80
2019-05-07T00:39:50.012Z,87.00
2019-05-07T00:42:27.201Z,87.10
2019-05-07T00:45:19.639Z,87.50
2019-05-07T00:47:43.319Z,88.30
2019-05-07T00:50:18.515Z,88.40
2019-05-07T00:52:47.807Z,88.90
2019-05-07T00:55:17.020Z,89.30
2019-05-07T00:57:46.180Z,89.20
2019-05-07T01:00:16.039Z,89.30
2019-05-07T01:02:45.238Z,89.30
2019-05-07T01:05:14.530Z,88.90
2019-05-07T01:07:44.261Z,89.00
2019-05-07T01:10:13.793Z,89.40
2019-05-07T01:12:43.532Z,88.90
2019-05-07T01:15:12.974Z,89.40
2019-05-07T01:17:42.618Z,90.20
2019-05-07T01:20:12.661Z,89.90
2019-05-07T01:22:42.557Z,89.40
2019-05-07T01:25:12.893Z,88.20
2019-05-07T01:27:42.773Z,88.60
2019-05-07T01:30:12.929Z,89.10
2019-05-07T01:33:02.902Z,89.20
2019-05-07T01:35:50.320Z,88.50
2019-05-07T01:38:19.820Z,88.00
2019-05-07T01:40:49.131Z,87.70
2019-05-07T01:43:18.440Z,87.60
2019-05-07T01:45:49.793Z,87.50
2019-05-07T01:48:19.531Z,87.60
2019-05-07T01:50:48.796Z,87.40
2019-05-07T01:53:18.323Z,87.40
2019-05-07T01:55:47.517Z,87.90
2019-05-07T01:58:16.786Z,88.00
2019-05-07T02:00:46.373Z,88.10
2019-05-07T02:03:43.699Z,88.30
2019-05-07T02:06:32.647Z,88.60
2019-05-07T02:09:17.798Z,88.70
2019-05-07T02:11:49.928Z,89.00
2019-05-07T02:14:27.764Z,88.80
2019-05-07T02:16:56.983Z,88.40
2019-05-07T02:19:26.157Z,88.60
2019-05-07T02:21:55.331Z,88.40
2019-05-07T02:24:24.491Z,88.40
2019-05-07T02:26:53.776Z,89.00
2019-05-07T02:29:23.054Z,89.20
2019-05-07T02:31:53.053Z,89.20
2019-05-07T02:34:23.530Z,89.20
2019-05-07T02:36:54.009Z,89.90
2019-05-07T02:39:33.084Z,89.20
2019-05-07T02:42:03.675Z,89.50
2019-05-07T02:44:35.488Z,89.90
2019-05-07T02:47:12.998Z,90.60
2019-05-07T02:49:56.575Z,90.90
2019-05-07T02:52:45.052Z,90.70
2019-05-07T02:55:33.842Z,90.30
2019-05-07T02:58:03.755Z,91.10
2019-05-07T03:00:33.565Z,91.50
2019-05-07T03:03:04.161Z,91.90
2019-05-07T03:05:34.968Z,92.60
2019-05-07T03:08:05.109Z,91.70
2019-05-07T03:10:34.514Z,91.10
2019-05-07T03:13:03.994Z,91.20
2019-05-07T03:15:34.649Z,90.50
2019-05-07T03:18:03.885Z,90.60
2019-05-07T03:20:42.548Z,91.50
2019-05-07T03:23:13.371Z,91.10
2019-05-07T03:26:22.886Z,92.00
2019-05-07T03:28:59.108Z,92.10
2019-05-07T03:31:47.771Z,92.00
2019-05-07T03:34:36.894Z,92.10
2019-05-07T03:37:06.593Z,92.90
2019-05-07T03:39:36.041Z,93.10
2019-05-07T03:42:05.682Z,93.20
2019-05-07T03:44:47.046Z,93.50
2019-05-07T03:47:23.842Z,93.50
2019-05-07T03:49:54.069Z,93.20
2019-05-07T03:52:24.442Z,93.40
2019-05-07T03:54:54.273Z,93.90
2019-05-07T03:57:24.093Z,94.30
2019-05-07T03:59:53.729Z,93.30
2019-05-07T04:02:24.099Z,92.70
2019-05-07T04:04:53.579Z,92.70
2019-05-07T04:07:23.428Z,93.00
2019-05-07T04:09:53.593Z,93.30
2019-05-07T04:12:23.905Z,93.80
2019-05-07T04:14:53.860Z,94.00
2019-05-07T04:17:26.874Z,94.30
2019-05-07T04:19:56.158Z,94.50
2019-05-07T04:22:28.924Z,93.90
2019-05-07T04:25:04.552Z,93.60
2019-05-07T04:27:55.608Z,94.20
2019-05-07T04:30:26.035Z,94.40
2019-05-07T04:32:57.150Z,94.20
2019-05-07T04:35:33.639Z,94.30
2019-05-07T04:38:06.698Z,94.20
2019-05-07T04:40:44.696Z,94.30
2019-05-07T04:43:14.080Z,94.60
2019-05-07T04:45:43.871Z,94.80
2019-05-07T04:48:14.304Z,95.20
2019-05-07T04:50:47.662Z,94.80
2019-05-07T04:53:16.519Z,94.40
2019-05-07T04:55:46.155Z,94.20
2019-05-07T04:58:15.582Z,94.40
2019-05-07T05:00:44.829Z,94.40
2019-05-07T05:03:39.574Z,94.60
2019-05-07T05:06:09.366Z,95.00
2019-05-07T05:08:38.636Z,95.10
2019-05-07T05:11:08.035Z,95.20
2019-05-07T05:13:37.298Z,95.40
2019-05-07T05:16:25.877Z,95.50
2019-05-07T05:18:56.758Z,95.60
2019-05-07T05:21:41.999Z,95.50
2019-05-07T05:24:14.876Z,95.60
2019-05-07T05:26:44.481Z,95.60
2019-05-07T05:29:14.676Z,95.90
2019-05-07T05:31:44.071Z,95.40
2019-05-07T05:34:15.293Z,95.30
2019-05-07T05:36:44.582Z,95.00
2019-05-07T05:39:14.233Z,93.70
2019-05-07T05:41:45.726Z,93.80
2019-05-07T05:44:22.616Z,93.60
2019-05-07T05:46:52.592Z,93.30
2019-05-07T05:49:22.947Z,93.10
2019-05-07T05:52:17.159Z,93.10
2019-05-07T05:54:56.867Z,92.30
2019-05-07T05:57:51.972Z,92.00
2019-05-07T06:00:48.204Z,92.50
2019-05-07T06:03:32.333Z,92.70
2019-05-07T06:06:12.819Z,92.00
2019-05-07T06:09:04.518Z,91.00
2019-05-07T06:11:43.185Z,90.20
2019-05-07T06:14:24.212Z,89.80
2019-05-07T06:17:10.204Z,88.40
2019-05-07T06:19:47.859Z,88.30
2019-05-07T06:22:35.080Z,88.10
2019-05-07T06:25:17.465Z,87.60
2019-05-07T06:27:46.701Z,87.40
2019-05-07T06:30:16.715Z,87.10
2019-05-07T06:32:46.200Z,87.10
2019-05-07T06:35:15.888Z,87.30
2019-05-07T06:37:45.997Z,87.30
2019-05-07T06:40:32.338Z,86.60
2019-05-07T06:43:21.869Z,86.50
2019-05-07T06:45:54.093Z,84.50
2019-05-07T06:48:37.866Z,83.70
2019-05-07T06:50:57.363Z,81.70
2019-05-07T06:53:32.948Z,82.30
2019-05-07T06:56:02.972Z,82.00
2019-05-07T06:58:54.189Z,80.50
2019-05-07T07:01:35.616Z,80.20
2019-05-07T07:04:12.883Z,79.70
2019-05-07T07:07:01.792Z,79.40
2019-05-07T07:09:49.304Z,78.70
2019-05-07T07:12:25.538Z,77.60
2019-05-07T07:14:53.571Z,75.40
2019-05-07T07:17:22.827Z,74.40
2019-05-07T07:19:52.613Z,74.50
2019-05-07T07:22:22.373Z,73.00
2019-05-07T07:24:53.115Z,74.60
2019-05-07T07:27:23.097Z,71.50
2019-05-07T07:30:02.307Z,74.10
2019-05-07T07:32:37.720Z,73.10
2019-05-07T07:35:09.716Z,73.80
2019-05-07T07:37:42.973Z,75.30
2019-05-07T07:40:28.920Z,73.70
2019-05-07T07:42:58.237Z,73.80
2019-05-07T07:45:27.852Z,73.10
2019-05-07T07:47:57.212Z,72.60
2019-05-07T07:50:26.453Z,72.90
2019-05-07T07:52:55.815Z,72.80
2019-05-07T07:55:32.998Z,70.10
2019-05-07T07:58:12.039Z,72.50
2019-05-07T08:00:52.274Z,68.30
2019-05-07T08:03:22.528Z,67.80
2019-05-07T08:05:52.402Z,67.20
2019-05-07T08:08:22.047Z,65.50
2019-05-07T08:10:52.066Z,65.50
2019-05-07T08:13:22.931Z,67.80
2019-05-07T08:15:52.431Z,66.50
2019-05-07T08:18:22.290Z,67.10
2019-05-07T08:20:52.017Z,67.40
2019-05-07T08:23:22.625Z,67.30
2019-05-07T08:25:52.666Z,69.20
2019-05-07T08:28:23.231Z,66.30
2019-05-07T08:31:00.385Z,65.80
2019-05-07T08:33:33.255Z,64.80
2019-05-07T08:36:16.157Z,63.80
2019-05-07T08:38:55.316Z,64.50
2019-05-07T08:41:26.226Z,66.40
2019-05-07T08:44:11.254Z,63.70
2019-05-07T08:46:51.974Z,62.90
2019-05-07T08:49:33.345Z,60.40
2019-05-07T08:52:03.613Z,61.40
2019-05-07T08:54:32.820Z,63.10
2019-05-07T08:57:02.404Z,62.30
2019-05-07T08:59:33.232Z,62.10
2019-05-07T09:02:03.239Z,62.10
2019-05-07T09:04:33.063Z,60.70
2019-05-07T09:07:02.956Z,61.50
2019-05-07T09:09:32.696Z,62.30
2019-05-07T09:12:03.075Z,62.40
2019-05-07T09:14:32.525Z,59.00
2019-05-07T09:17:02.564Z,60.50
2019-05-07T09:19:46.823Z,62.50
2019-05-07T09:22:04.508Z,65.10
2019-05-07T09:24:34.099Z,64.40
2019-05-07T09:27:12.177Z,64.20
2019-05-07T09:30:03.813Z,63.80
2019-05-07T09:32:39.201Z,61.80
2019-05-07T09:35:12.508Z,65.30
2019-05-07T09:37:42.244Z,66.90
2019-05-07T09:40:12.565Z,67.10
2019-05-07T09:42:42.276Z,68.10
2019-05-07T09:45:12.157Z,67.80
2019-05-07T09:47:41.917Z,67.30
2019-05-07T09:50:12.016Z,68.50
2019-05-07T09:52:42.685Z,67.20
2019-05-07T09:55:17.184Z,67.40
2019-05-07T09:57:43.666Z,68.20
2019-05-07T10:00:14.133Z,68.00
2019-05-07T10:02:43.460Z,68.10
2019-05-07T10:05:13.311Z,67.50
2019-05-07T10:07:42.559Z,67.20
2019-05-07T10:10:12.938Z,66.50
2019-05-07T10:12:54.937Z,64.90
2019-05-07T10:15:24.301Z,64.90
2019-05-07T10:17:58.890Z,65.20
2019-05-07T10:20:28.228Z,66.80
2019-05-07T10:22:57.542Z,67.00
2019-05-07T10:25:33.420Z,67.60
2019-05-07T10:28:03.590Z,66.80
2019-05-07T10:30:33.327Z,67.80
2019-05-07T10:33:02.619Z,68.20
2019-05-07T10:35:33.773Z,70.30
2019-05-07T10:38:03.557Z,71.30
2019-05-07T10:40:32.880Z,71.50
2019-05-07T10:43:02.426Z,70.80
2019-05-07T10:45:48.423Z,69.60
2019-05-07T10:48:36.036Z,68.60
2019-05-07T10:51:05.422Z,69.20
2019-05-07T10:53:35.184Z,70.40
2019-05-07T10:56:05.080Z,70.20
2019-05-07T10:58:34.399Z,68.80
2019-05-07T11:01:03.845Z,66.90
2019-05-07T11:03:33.011Z,68.00
2019-05-07T11:06:02.722Z,67.50
2019-05-07T11:08:32.875Z,66.00
2019-05-07T11:11:02.961Z,66.10
2019-05-07T11:13:32.416Z,64.70
2019-05-07T11:16:06.791Z,64.50
2019-05-07T11:18:42.794Z,67.30
2019-05-07T11:21:11.992Z,67.10
2019-05-07T11:23:41.862Z,66.40
2019-05-07T11:26:11.801Z,63.10
2019-05-07T11:28:41.290Z,63.40
2019-05-07T11:31:12.352Z,62.90
2019-05-07T11:33:42.255Z,63.90
2019-05-07T11:36:11.536Z,62.90
2019-05-07T11:38:41.813Z,59.40
2019-05-07T11:41:12.775Z,57.70
2019-05-07T11:44:06.107Z,60.20
2019-05-07T11:47:02.975Z,59.70
2019-05-07T11:49:49.575Z,58.10
2019-05-07T11:52:27.493Z,58.20
2019-05-07T11:54:57.060Z,57.00
2019-05-07T11:57:26.607Z,57.80
2019-05-07T11:59:55.864Z,57.10
2019-05-07T12:02:25.592Z,55.90
2019-05-07T12:04:54.862Z,57.90
2019-05-07T12:07:24.184Z,56.20
2019-05-07T12:09:53.695Z,56.90
2019-05-07T12:12:23.243Z,55.00
2019-05-07T12:14:52.617Z,56.00
2019-05-07T12:17:22.608Z,56.40
2019-05-07T12:19:52.688Z,57.30
2019-05-07T12:22:39.791Z,59.00
2019-05-07T12:25:09.176Z,59.50
2019-05-07T12:27:38.771Z,59.20
2019-05-07T12:30:12.052Z,60.00
2019-05-07T12:33:02.289Z,60.00
2019-05-07T12:35:31.380Z,60.20
2019-05-07T12:38:02.067Z,60.00
2019-05-07T12:40:32.533Z,57.10
2019-05-07T12:43:02.143Z,57.90
2019-05-07T12:45:31.508Z,59.60
2019-05-07T12:48:02.380Z,59.70
2019-05-07T12:50:32.337Z,56.80
2019-05-07T12:53:23.664Z,56.10
2019-05-07T12:55:56.248Z,56.60
2019-05-07T12:58:25.535Z,54.30
2019-05-07T13:01:02.533Z,54.00
2019-05-07T13:03:42.655Z,51.80
2019-05-07T13:06:11.725Z,48.40
2019-05-07T13:08:41.961Z,49.30
2019-05-07T13:11:13.239Z,46.20
2019-05-07T13:13:42.414Z,47.10
2019-05-07T13:16:12.800Z,44.90
2019-05-07T13:18:42.364Z,42.10
2019-05-07T13:21:11.966Z,41.40
2019-05-07T13:23:42.191Z,43.90
2019-05-07T13:26:12.092Z,44.00
2019-05-07T13:28:41.952Z,42.20
2019-05-07T13:31:12.608Z,41.40
2019-05-07T13:33:43.426Z,42.10
2019-05-07T13:36:12.827Z,41.50
2019-05-07T13:39:05.662Z,41.10
2019-05-07T13:41:56.834Z,40.70
2019-05-07T13:44:49.124Z,39.40
2019-05-07T13:47:30.322Z,39.00
2019-05-07T13:50:02.442Z,41.90
2019-05-07T13:52:32.938Z,42.30
2019-05-07T13:55:02.050Z,43.00
2019-05-07T13:57:32.240Z,42.60
2019-05-07T14:00:04.830Z,44.80
2019-05-07T14:02:33.251Z,45.80
2019-05-07T14:05:04.865Z,47.50
2019-05-07T14:07:35.799Z,46.70
2019-05-07T14:10:05.651Z,43.30
2019-05-07T14:12:34.921Z,44.20
2019-05-07T14:15:05.035Z,44.80
2019-05-07T14:17:34.373Z,44.30
2019-05-07T14:20:04.855Z,44.40
2019-05-07T14:22:34.406Z,42.60
2019-05-07T14:25:03.986Z,43.30
2019-05-07T14:27:34.244Z,45.30
2019-05-07T14:30:03.580Z,44.70
2019-05-07T14:32:44.912Z,43.90
2019-05-07T14:35:33.551Z,45.60
2019-05-07T14:38:13.686Z,45.60
2019-05-07T14:40:42.702Z,42.50
2019-05-07T14:43:17.614Z,44.90
2019-05-07T14:45:46.820Z,42.40
2019-05-07T14:48:16.458Z,40.20
2019-05-07T14:50:46.071Z,40.80
2019-05-07T14:53:16.414Z,37.10
2019-05-07T14:55:46.016Z,39.00
2019-05-07T14:58:15.341Z,40.20
2019-05-07T15:00:44.604Z,41.00
2019-05-07T15:03:14.157Z,41.50
2019-05-07T15:05:43.617Z,44.40
2019-05-07T15:08:14.336Z,44.30
2019-05-07T15:10:44.318Z,43.20
2019-05-07T15:13:13.939Z,44.60
2019-05-07T15:15:43.499Z,45.30
2019-05-07T15:18:22.828Z,44.90
2019-05-07T15:20:52.537Z,45.80
2019-05-07T15:23:29.218Z,45.20
2019-05-07T15:25:58.546Z,45.80
2019-05-07T15:28:29.183Z,47.00
2019-05-07T15:31:19.835Z,47.50
2019-05-07T15:33:49.208Z,46.80
2019-05-07T15:36:19.118Z,46.80
2019-05-07T15:38:48.571Z,49.10
2019-05-07T15:41:17.925Z,50.50
2019-05-07T15:43:47.508Z,50.20
2019-05-07T15:46:16.779Z,49.80
2019-05-07T15:48:46.071Z,49.30
2019-05-07T15:51:16.997Z,48.20
2019-05-07T15:53:52.499Z,44.80
2019-05-07T15:56:21.958Z,44.10
2019-05-07T15:58:51.829Z,44.80
2019-05-07T16:01:22.216Z,46.20
2019-05-07T16:03:54.708Z,45.20
2019-05-07T16:06:22.798Z,46.80
2019-05-07T16:08:54.564Z,49.90
2019-05-07T16:11:23.836Z,49.10
2019-05-07T16:14:12.587Z,49.90
2019-05-07T16:16:45.055Z,50.90
2019-05-07T16:19:18.889Z,51.80
2019-05-07T16:21:48.223Z,51.50
2019-05-07T16:24:17.853Z,53.70
2019-05-07T16:26:47.104Z,54.70
2019-05-07T16:29:16.320Z,55.30
2019-05-07T16:31:48.444Z,56.80
2019-05-07T16:34:16.555Z,56.50
2019-05-07T16:36:45.807Z,57.00
2019-05-07T16:39:15.044Z,57.50
2019-05-07T16:41:44.396Z,56.70
2019-05-07T16:44:13.694Z,55.80
2019-05-07T16:46:42.938Z,52.40
2019-05-07T16:49:12.316Z,50.90
2019-05-07T16:51:44.600Z,50.70
2019-05-07T16:54:12.897Z,48.90
2019-05-07T16:57:00.284Z,46.50
2019-05-07T16:59:32.098Z,47.40
2019-05-07T17:02:03.679Z,48.40
2019-05-07T17:04:32.925Z,48.40
2019-05-07T17:07:03.791Z,48.50
2019-05-07T17:09:35.277Z,49.40
2019-05-07T17:12:06.973Z,49.00
2019-05-07T17:14:36.170Z,47.30
2019-05-07T17:17:05.420Z,45.30
2019-05-07T17:19:34.696Z,46.10
2019-05-07T17:22:06.527Z,47.60
2019-05-07T17:24:35.375Z,50.10
2019-05-07T17:27:04.854Z,50.10
2019-05-07T17:29:34.055Z,50.80
2019-05-07T17:32:03.542Z,53.50
2019-05-07T17:34:33.022Z,54.40
2019-05-07T17:37:02.175Z,54.10
2019-05-07T17:39:32.267Z,55.80
2019-05-07T17:42:02.467Z,56.90
2019-05-07T17:44:32.513Z,58.20
2019-05-07T17:47:02.147Z,59.40
2019-05-07T17:49:32.365Z,60.30
2019-05-07T17:52:03.019Z,60.70
2019-05-07T17:54:32.486Z,61.40
2019-05-07T17:57:02.151Z,62.10
2019-05-07T17:59:32.087Z,62.30
2019-05-07T18:02:22.019Z,62.70
2019-05-07T18:04:54.577Z,62.80
2019-05-07T18:07:22.404Z,63.50
2019-05-07T18:09:51.765Z,64.30
2019-05-07T18:12:22.501Z,65.30
2019-05-07T18:14:52.791Z,66.20
2019-05-07T18:17:37.733Z,66.00
2019-05-07T18:20:07.234Z,66.60
2019-05-07T18:22:36.549Z,67.00
2019-05-07T18:25:06.434Z,67.50
2019-05-07T18:27:37.262Z,67.90
2019-05-07T18:30:08.099Z,68.30
2019-05-07T18:32:45.166Z,68.40
2019-05-07T18:35:14.535Z,68.70
2019-05-07T18:37:52.904Z,69.10
2019-05-07T18:40:23.958Z,69.30
2019-05-07T18:42:53.220Z,69.70
2019-05-07T18:45:22.746Z,69.90
2019-05-07T18:47:52.062Z,70.50
2019-05-07T18:50:25.634Z,71.10
2019-05-07T18:52:54.969Z,71.20
2019-05-07T18:55:32.941Z,71.60
2019-05-07T18:58:02.951Z,72.20
2019-05-07T19:00:42.407Z,72.00
2019-05-07T19:03:11.856Z,72.20
2019-05-07T19:05:52.414Z,72.20
2019-05-07T19:08:22.935Z,72.40
2019-05-07T19:11:07.517Z,72.80
2019-05-07T19:13:37.033Z,73.00
2019-05-07T19:16:06.739Z,73.00
2019-05-07T19:18:38.415Z,73.10
2019-05-07T19:21:08.086Z,73.00
2019-05-07T19:23:37.647Z,73.20
2019-05-07T19:26:07.001Z,73.30
2019-05-07T19:28:36.340Z,73.50
2019-05-07T19:31:05.710Z,73.50
2019-05-07T19:33:35.630Z,73.30
2019-05-07T19:36:04.928Z,73.10
2019-05-07T19:38:38.002Z,73.50
2019-05-07T19:41:07.243Z,73.30
2019-05-07T19:43:37.205Z,73.40
2019-05-07T19:46:12.360Z,73.40
2019-05-07T19:48:45.028Z,73.80
2019-05-07T19:51:16.282Z,74.10
2019-05-07T19:53:46.947Z,74.30
2019-05-07T19:56:19.295Z,74.10
2019-05-07T19:58:49.230Z,74.20
2019-05-07T20:01:22.841Z,74.60
2019-05-07T20:03:52.985Z,75.20
2019-05-07T20:06:23.425Z,75.30
2019-05-07T20:08:53.168Z,75.30
2019-05-07T20:11:28.380Z,75.90
2019-05-07T20:13:57.939Z,75.10
2019-05-07T20:16:27.471Z,75.30
2019-05-07T20:18:57.031Z,75.70
2019-05-07T20:21:26.571Z,76.80
2019-05-07T20:23:58.868Z,78.30
2019-05-07T20:26:32.605Z,79.00
2019-05-07T20:29:03.055Z,80.10
2019-05-07T20:31:33.162Z,80.20
2019-05-07T20:34:03.150Z,80.70
2019-05-07T20:36:32.976Z,81.10
2019-05-07T20:39:02.448Z,81.70
2019-05-07T20:41:33.479Z,81.90
2019-05-07T20:44:04.071Z,82.50
2019-05-07T20:46:34.004Z,82.80
2019-05-07T20:49:03.260Z,83.30
2019-05-07T20:51:32.692Z,83.40
2019-05-07T20:54:22.868Z,83.30
2019-05-07T20:56:58.424Z,83.90
2019-05-07T20:59:27.720Z,84.00
2019-05-07T21:01:57.091Z,83.90
2019-05-07T21:04:26.357Z,84.00
2019-05-07T21:06:55.650Z,84.30
2019-05-07T21:09:25.228Z,84.60
2019-05-07T21:11:54.525Z,84.50
2019-05-07T21:14:23.750Z,84.20
2019-05-07T21:16:53.014Z,84.00
2019-05-07T21:19:22.517Z,84.10
2019-05-07T21:21:54.860Z,84.00
2019-05-07T21:24:24.346Z,84.60
2019-05-07T21:26:53.645Z,84.40
2019-05-07T21:29:22.950Z,85.20
2019-05-07T21:31:52.495Z,85.60
2019-05-07T21:34:23.021Z,85.50
2019-05-07T21:36:53.266Z,85.30
2019-05-07T21:39:22.963Z,84.60
2019-05-07T21:41:52.448Z,84.20
2019-05-07T21:44:37.300Z,83.50
2019-05-07T21:47:12.577Z,82.90
2019-05-07T21:49:49.487Z,82.60
2019-05-07T21:52:18.771Z,82.60
2019-05-07T21:55:12.292Z,82.00
2019-05-07T21:58:02.326Z,82.40
2019-05-07T22:00:54.137Z,82.80
2019-05-07T22:03:23.788Z,83.60
2019-05-07T22:05:53.282Z,84.90
2019-05-07T22:08:23.242Z,85.90
2019-05-07T22:10:53.296Z,86.40
2019-05-07T22:13:22.864Z,86.70
2019-05-07T22:15:54.955Z,86.30
2019-05-07T22:18:23.192Z,86.50
2019-05-07T22:20:52.818Z,86.70
2019-05-07T22:23:24.938Z,87.10
2019-05-07T22:25:54.119Z,87.30
2019-05-07T22:28:23.445Z,86.90
2019-05-07T22:31:05.679Z,86.70
2019-05-07T22:33:43.864Z,86.60
2019-05-07T22:36:12.861Z,86.70
2019-05-07T22:38:42.041Z,87.00
2019-05-07T22:41:12.857Z,87.50
2019-05-07T22:43:42.516Z,88.10
2019-05-07T22:46:12.509Z,88.20
2019-05-07T22:48:42.000Z,88.20
2019-05-07T22:51:12.216Z,88.10
2019-05-07T22:53:41.721Z,88.20
2019-05-07T22:56:12.025Z,88.80
2019-05-07T22:58:49.226Z,89.20
2019-05-07T23:01:18.707Z,89.60
2019-05-07T23:03:51.805Z,90.40
2019-05-07T23:06:23.167Z,90.70
2019-05-07T23:08:53.477Z,90.70
2019-05-07T23:11:23.774Z,90.20
2019-05-07T23:13:54.749Z,90.00
2019-05-07T23:16:24.426Z,89.90
2019-05-07T23:18:54.829Z,89.40
2019-05-07T23:21:24.697Z,88.80
2019-05-07T23:23:54.343Z,88.20
2019-05-07T23:26:24.088Z,88.20
2019-05-07T23:28:53.331Z,88.70
2019-05-07T23:31:22.978Z,88.80
2019-05-07T23:33:52.513Z,88.80
2019-05-07T23:36:22.532Z,88.10
2019-05-07T23:38:52.353Z,88.00
2019-05-07T23:41:42.056Z,87.90
2019-05-07T23:44:14.263Z,88.20
2019-05-07T23:46:47.248Z,88.50
2019-05-07T23:49:16.556Z,88.70
2019-05-07T23:51:45.755Z,89.00
2019-05-07T23:54:15.064Z,88.90
2019-05-07T23:56:44.608Z,88.90
2019-05-07T23:59:14.949Z,88.80
